createdAt,value
2022-12-29T00:00:00.566Z,3.60
2022-12-29T00:01:00.598Z,4.30
2022-12-29T00:02:00.566Z,4.10
2022-12-29T00:03:00.765Z,3.90
2022-12-29T00:04:00.545Z,4.80
2022-12-29T00:05:00.508Z,3.60
2022-12-29T00:06:00.485Z,4.30
2022-12-29T00:07:00.496Z,4.20
2022-12-29T00:08:00.507Z,3.70
2022-12-29T00:09:00.445Z,4.40
2022-12-29T00:10:00.436Z,3.50
2022-12-29T00:11:00.460Z,4.30
2022-12-29T00:12:00.425Z,3.20
2022-12-29T00:13:00.423Z,3.60
2022-12-29T00:14:00.432Z,3.50
2022-12-29T00:15:00.387Z,3.50
2022-12-29T00:16:00.468Z,3.40
2022-12-29T00:17:00.392Z,3.80
2022-12-29T00:18:00.353Z,3.40
2022-12-29T00:19:00.371Z,3.50
2022-12-29T00:20:00.386Z,3.40
2022-12-29T00:21:00.327Z,4.20
2022-12-29T00:22:00.321Z,3.40
2022-12-29T00:23:00.292Z,3.90
2022-12-29T00:24:00.292Z,4.20
2022-12-29T00:25:00.278Z,3.30
2022-12-29T00:26:00.278Z,3.20
2022-12-29T00:27:00.265Z,3.70
2022-12-29T00:28:06.408Z,3.70
2022-12-29T00:29:01.247Z,3.40
2022-12-29T00:30:00.270Z,4.20
2022-12-29T00:31:00.266Z,3.50
2022-12-29T00:32:00.302Z,3.90
2022-12-29T00:33:00.206Z,3.60
2022-12-29T00:34:00.294Z,3.50
2022-12-29T00:35:00.188Z,3.90
2022-12-29T00:36:00.179Z,3.40
2022-12-29T00:37:00.133Z,3.50
2022-12-29T00:38:00.136Z,3.90
2022-12-29T00:39:00.163Z,4.10
2022-12-29T00:40:00.124Z,3.90
2022-12-29T00:41:00.131Z,3.70
2022-12-29T00:42:00.121Z,3.80
2022-12-29T00:43:00.139Z,3.20
2022-12-29T00:44:00.067Z,3.70
2022-12-29T00:45:00.098Z,3.50
2022-12-29T00:46:00.048Z,4.10
2022-12-29T00:47:00.095Z,3.50
2022-12-29T00:48:00.047Z,4.00
2022-12-29T00:49:00.026Z,4.50
2022-12-29T00:49:59.993Z,3.50
2022-12-29T00:51:00.028Z,3.50
2022-12-29T00:51:59.982Z,3.80
2022-12-29T00:52:59.977Z,3.70
2022-12-29T00:53:59.985Z,4.80
2022-12-29T00:54:59.944Z,3.20
2022-12-29T00:55:59.951Z,3.70
2022-12-29T00:57:00.028Z,4.10
2022-12-29T00:57:59.923Z,4.00
2022-12-29T00:58:59.917Z,4.40
2022-12-29T00:59:59.929Z,3.10
2022-12-29T01:00:59.919Z,3.30
2022-12-29T01:01:59.970Z,3.30
2022-12-29T01:03:00.096Z,3.30
2022-12-29T01:04:03.710Z,3.90
2022-12-29T01:04:59.824Z,3.50
2022-12-29T01:05:59.815Z,3.50
2022-12-29T01:06:59.805Z,4.00
2022-12-29T01:07:59.818Z,3.50
2022-12-29T01:08:59.811Z,3.50
2022-12-29T01:09:59.804Z,3.40
2022-12-29T01:10:59.757Z,3.60
2022-12-29T01:11:59.747Z,3.20
2022-12-29T01:12:59.736Z,3.40
2022-12-29T01:13:59.725Z,3.90
2022-12-29T01:14:59.768Z,4.60
2022-12-29T01:15:59.828Z,3.70
2022-12-29T01:16:59.699Z,4.00
2022-12-29T01:17:59.683Z,3.50
2022-12-29T01:18:59.681Z,3.50
2022-12-29T01:19:59.732Z,3.70
2022-12-29T01:20:59.683Z,3.90
2022-12-29T01:21:59.669Z,3.70
2022-12-29T01:22:59.624Z,3.70
2022-12-29T01:23:59.614Z,4.60
2022-12-29T01:24:59.631Z,3.70
2022-12-29T01:25:59.601Z,3.50
2022-12-29T01:26:59.620Z,3.80
2022-12-29T01:27:59.570Z,3.60
2022-12-29T01:28:59.580Z,3.40
2022-12-29T01:29:59.562Z,4.70
2022-12-29T01:30:59.580Z,3.20
2022-12-29T01:31:59.635Z,4.10
2022-12-29T01:32:59.556Z,3.70
2022-12-29T01:33:59.506Z,4.60
2022-12-29T01:34:59.511Z,3.90
2022-12-29T01:35:59.508Z,3.70
2022-12-29T01:36:59.493Z,5.40
2022-12-29T01:37:59.469Z,4.50
2022-12-29T01:38:59.492Z,4.20
2022-12-29T01:39:59.440Z,3.00
2022-12-29T01:40:59.446Z,4.00
2022-12-29T01:41:59.427Z,3.90
2022-12-29T01:42:59.420Z,4.10
2022-12-29T01:43:59.413Z,4.20
2022-12-29T01:44:59.427Z,3.00
2022-12-29T01:45:59.460Z,4.10
2022-12-29T01:46:59.384Z,3.40
2022-12-29T01:47:59.374Z,3.30
2022-12-29T01:48:59.347Z,3.10
2022-12-29T01:49:59.363Z,3.00
2022-12-29T01:50:59.360Z,3.70
2022-12-29T01:51:59.342Z,3.70
2022-12-29T01:52:59.294Z,3.00
2022-12-29T01:53:59.367Z,3.30
2022-12-29T01:54:59.277Z,3.20
2022-12-29T01:55:59.265Z,3.80
2022-12-29T01:56:59.290Z,3.40
2022-12-29T01:57:59.238Z,3.20
2022-12-29T01:58:59.244Z,3.30
2022-12-29T01:59:59.246Z,3.50
2022-12-29T02:00:59.284Z,2.80
2022-12-29T02:01:59.302Z,3.40
2022-12-29T02:02:59.297Z,3.30
2022-12-29T02:03:59.172Z,2.80
2022-12-29T02:05:04.244Z,2.90
2022-12-29T02:06:00.169Z,2.90
2022-12-29T02:06:59.160Z,2.90
2022-12-29T02:07:59.176Z,2.60
2022-12-29T02:08:59.128Z,3.00
2022-12-29T02:09:59.118Z,3.50
2022-12-29T02:10:59.091Z,2.60
2022-12-29T02:11:59.096Z,3.20
2022-12-29T02:12:59.066Z,2.80
2022-12-29T02:14:03.173Z,2.60
2022-12-29T02:14:59.068Z,2.40
2022-12-29T02:15:59.122Z,2.70
2022-12-29T02:16:59.068Z,4.60
2022-12-29T02:17:59.025Z,3.20
2022-12-29T02:18:59.042Z,2.70
2022-12-29T02:19:59.004Z,2.80
2022-12-29T02:20:58.992Z,2.80
2022-12-29T02:21:58.992Z,3.20
2022-12-29T02:22:58.972Z,2.80
2022-12-29T02:23:59.041Z,2.70
2022-12-29T02:24:58.937Z,3.00
2022-12-29T02:25:58.937Z,2.40
2022-12-29T02:26:58.945Z,3.40
2022-12-29T02:27:58.924Z,3.20
2022-12-29T02:28:58.912Z,2.40
2022-12-29T02:29:58.911Z,2.50
2022-12-29T02:30:58.872Z,3.10
2022-12-29T02:31:58.891Z,2.80
2022-12-29T02:32:58.880Z,2.50
2022-12-29T02:33:58.840Z,2.40
2022-12-29T02:34:58.882Z,2.30
2022-12-29T02:35:58.812Z,3.10
2022-12-29T02:36:58.805Z,2.10
2022-12-29T02:37:58.791Z,2.60
2022-12-29T02:38:58.804Z,2.10
2022-12-29T02:39:58.800Z,3.00
2022-12-29T02:40:58.819Z,2.30
2022-12-29T02:41:58.749Z,2.10
2022-12-29T02:42:58.737Z,2.30
2022-12-29T02:43:58.725Z,2.00
2022-12-29T02:44:58.732Z,2.70
2022-12-29T02:45:58.756Z,2.20
2022-12-29T02:46:58.722Z,4.80
2022-12-29T02:47:58.681Z,3.20
2022-12-29T02:48:58.789Z,3.20
2022-12-29T02:49:58.676Z,2.70
2022-12-29T02:50:58.671Z,2.20
2022-12-29T02:51:58.654Z,2.30
2022-12-29T02:52:58.629Z,2.00
2022-12-29T02:53:58.627Z,3.00
2022-12-29T02:54:58.601Z,2.00
2022-12-29T02:55:58.628Z,2.70
2022-12-29T02:56:58.614Z,2.40
2022-12-29T02:57:58.594Z,2.60
2022-12-29T02:58:58.561Z,3.00
2022-12-29T02:59:58.561Z,2.40
2022-12-29T03:00:58.605Z,2.10
2022-12-29T03:01:58.729Z,1.90
2022-12-29T03:02:58.696Z,2.20
2022-12-29T03:03:58.534Z,2.80
2022-12-29T03:04:58.493Z,3.20
2022-12-29T03:05:58.501Z,1.80
2022-12-29T03:06:58.494Z,2.30
2022-12-29T03:07:58.457Z,2.30
2022-12-29T03:08:58.488Z,2.80
2022-12-29T03:09:58.439Z,2.00
2022-12-29T03:10:58.445Z,1.80
2022-12-29T03:11:58.449Z,1.80
2022-12-29T03:12:58.431Z,1.70
2022-12-29T03:13:58.394Z,2.50
2022-12-29T03:14:58.433Z,2.50
2022-12-29T03:15:58.367Z,1.80
2022-12-29T03:16:58.408Z,1.80
2022-12-29T03:17:58.356Z,1.80
2022-12-29T03:18:58.366Z,1.60
2022-12-29T03:19:58.336Z,1.60
2022-12-29T03:20:58.366Z,1.80
2022-12-29T03:21:58.306Z,1.80
2022-12-29T03:22:58.292Z,1.70
2022-12-29T03:23:58.300Z,1.40
2022-12-29T03:24:58.305Z,1.40
2022-12-29T03:25:58.279Z,1.80
2022-12-29T03:26:58.299Z,1.80
2022-12-29T03:27:58.249Z,1.60
2022-12-29T03:28:58.225Z,1.40
2022-12-29T03:29:58.248Z,3.40
2022-12-29T03:30:58.279Z,1.50
2022-12-29T03:31:58.220Z,1.90
2022-12-29T03:32:58.228Z,1.90
2022-12-29T03:33:58.171Z,1.60
2022-12-29T03:34:58.188Z,1.50
2022-12-29T03:35:58.198Z,1.20
2022-12-29T03:36:58.153Z,1.60
2022-12-29T03:37:58.124Z,1.80
2022-12-29T03:38:58.158Z,1.70
2022-12-29T03:39:58.104Z,1.50
2022-12-29T03:40:58.127Z,1.50
2022-12-29T03:41:58.078Z,1.40
2022-12-29T03:42:58.084Z,1.50
2022-12-29T03:43:58.072Z,1.80
2022-12-29T03:44:58.113Z,1.60
2022-12-29T03:45:58.078Z,1.20
2022-12-29T03:46:58.046Z,1.60
2022-12-29T03:47:58.017Z,1.50
2022-12-29T03:48:58.029Z,2.00
2022-12-29T03:49:58.005Z,1.70
2022-12-29T03:50:58.010Z,1.40
2022-12-29T03:51:57.998Z,1.70
2022-12-29T03:52:57.974Z,1.40
2022-12-29T03:53:57.956Z,1.20
2022-12-29T03:54:57.950Z,1.40
2022-12-29T03:55:57.950Z,1.80
2022-12-29T03:56:57.977Z,1.30
2022-12-29T03:57:57.936Z,1.20
2022-12-29T03:58:57.888Z,1.50
2022-12-29T03:59:57.913Z,1.30
2022-12-29T04:00:57.870Z,1.40
2022-12-29T04:01:58.050Z,1.20
2022-12-29T04:02:58.051Z,1.60
2022-12-29T04:03:57.842Z,1.20
2022-12-29T04:04:57.825Z,1.70
2022-12-29T04:05:57.832Z,1.50
2022-12-29T04:06:57.840Z,1.80
2022-12-29T04:07:57.807Z,1.70
2022-12-29T04:08:57.795Z,1.70
2022-12-29T04:09:57.783Z,1.50
2022-12-29T04:10:57.767Z,1.50
2022-12-29T04:11:57.778Z,1.20
2022-12-29T04:12:57.740Z,1.30
2022-12-29T04:13:57.721Z,1.70
2022-12-29T04:14:57.730Z,1.10
2022-12-29T04:15:57.819Z,1.20
2022-12-29T04:16:57.708Z,1.50
2022-12-29T04:17:57.727Z,1.30
2022-12-29T04:18:57.675Z,1.40
2022-12-29T04:19:57.689Z,1.30
2022-12-29T04:20:57.678Z,1.10
2022-12-29T04:21:57.635Z,1.80
2022-12-29T04:22:57.643Z,1.50
2022-12-29T04:23:57.624Z,1.20
2022-12-29T04:24:57.604Z,1.30
2022-12-29T04:25:57.592Z,1.10
2022-12-29T04:26:57.660Z,1.60
2022-12-29T04:27:57.576Z,1.60
2022-12-29T04:28:57.586Z,1.50
2022-12-29T04:29:57.546Z,1.10
2022-12-29T04:30:57.651Z,1.40
2022-12-29T04:31:57.547Z,1.40
2022-12-29T04:32:57.552Z,1.20
2022-12-29T04:33:57.514Z,2.20
2022-12-29T04:34:57.510Z,1.10
2022-12-29T04:35:57.486Z,1.20
2022-12-29T04:36:57.482Z,1.00
2022-12-29T04:37:57.463Z,1.00
2022-12-29T04:38:57.465Z,1.10
2022-12-29T04:39:57.457Z,1.00
2022-12-29T04:40:57.434Z,1.30
2022-12-29T04:41:57.428Z,1.60
2022-12-29T04:42:57.403Z,1.50
2022-12-29T04:43:57.414Z,1.20
2022-12-29T04:44:57.413Z,5.70
2022-12-29T04:45:57.458Z,1.10
2022-12-29T04:46:57.446Z,1.00
2022-12-29T04:47:57.404Z,1.00
2022-12-29T04:48:57.347Z,1.40
2022-12-29T04:49:57.331Z,1.30
2022-12-29T04:50:57.338Z,1.70
2022-12-29T04:51:57.305Z,1.40
2022-12-29T04:52:57.323Z,1.30
2022-12-29T04:53:57.296Z,2.80
2022-12-29T04:54:57.272Z,1.80
2022-12-29T04:55:57.261Z,1.40
2022-12-29T04:56:57.295Z,1.50
2022-12-29T04:57:57.239Z,1.70
2022-12-29T04:58:57.261Z,1.00
2022-12-29T04:59:57.223Z,1.00
2022-12-29T05:00:57.225Z,2.00
2022-12-29T05:01:57.398Z,1.60
2022-12-29T05:02:57.394Z,1.10
2022-12-29T05:03:57.227Z,2.00
2022-12-29T05:04:57.187Z,1.20
2022-12-29T05:05:57.151Z,1.20
2022-12-29T05:06:57.154Z,1.40
2022-12-29T05:07:57.134Z,1.40
2022-12-29T05:08:57.164Z,1.00
2022-12-29T05:09:57.103Z,1.10
2022-12-29T05:10:57.114Z,1.30
2022-12-29T05:11:57.111Z,1.10
2022-12-29T05:12:57.090Z,1.30
2022-12-29T05:13:57.076Z,1.30
2022-12-29T05:14:57.106Z,0.90
2022-12-29T05:15:57.139Z,1.20
2022-12-29T05:16:57.038Z,1.00
2022-12-29T05:17:57.023Z,1.40
2022-12-29T05:18:57.004Z,0.90
2022-12-29T05:19:57.053Z,1.00
2022-12-29T05:20:57.048Z,0.90
2022-12-29T05:21:56.975Z,1.00
2022-12-29T05:22:56.961Z,1.30
2022-12-29T05:23:56.962Z,1.90
2022-12-29T05:24:56.952Z,1.40
2022-12-29T05:25:56.966Z,1.30
2022-12-29T05:26:56.978Z,1.30
2022-12-29T05:27:56.921Z,0.90
2022-12-29T05:28:56.893Z,1.60
2022-12-29T05:29:56.901Z,1.10
2022-12-29T05:30:56.967Z,1.50
2022-12-29T05:31:56.954Z,1.20
2022-12-29T05:32:56.886Z,1.10
2022-12-29T05:33:56.836Z,1.10
2022-12-29T05:34:56.828Z,1.30
2022-12-29T05:35:56.842Z,1.10
2022-12-29T05:36:56.824Z,0.80
2022-12-29T05:37:56.834Z,1.10
2022-12-29T05:38:56.794Z,1.60
2022-12-29T05:39:56.774Z,1.30
2022-12-29T05:40:56.766Z,0.90
2022-12-29T05:41:56.793Z,1.30
2022-12-29T05:42:56.745Z,0.90
2022-12-29T05:43:56.740Z,1.20
2022-12-29T05:44:56.749Z,1.30
2022-12-29T05:45:56.705Z,1.80
2022-12-29T05:46:56.989Z,1.10
2022-12-29T05:47:56.720Z,1.20
2022-12-29T05:48:56.684Z,1.30
2022-12-29T05:49:56.658Z,1.00
2022-12-29T05:50:56.657Z,1.70
2022-12-29T05:51:56.688Z,1.20
2022-12-29T05:52:56.663Z,1.00
2022-12-29T05:53:56.636Z,1.40
2022-12-29T05:54:56.605Z,1.50
2022-12-29T05:55:56.608Z,1.40
2022-12-29T05:56:56.598Z,1.30
2022-12-29T05:57:56.594Z,1.00
2022-12-29T05:58:56.570Z,1.20
2022-12-29T05:59:56.556Z,1.10
2022-12-29T06:00:56.538Z,1.60
2022-12-29T06:01:56.696Z,2.10
2022-12-29T06:02:56.698Z,1.40
2022-12-29T06:03:56.616Z,1.20
2022-12-29T06:04:56.518Z,1.00
2022-12-29T06:05:56.501Z,1.30
2022-12-29T06:06:56.469Z,1.00
2022-12-29T06:07:56.487Z,1.00
2022-12-29T06:08:56.474Z,0.80
2022-12-29T06:09:56.437Z,1.40
2022-12-29T06:10:56.446Z,1.20
2022-12-29T06:11:56.432Z,1.70
2022-12-29T06:12:56.431Z,1.90
2022-12-29T06:13:56.412Z,0.90
2022-12-29T06:14:56.392Z,1.40
2022-12-29T06:15:56.422Z,1.10
2022-12-29T06:16:56.390Z,1.70
2022-12-29T06:17:56.365Z,1.00
2022-12-29T06:18:56.351Z,1.00
2022-12-29T06:19:56.355Z,1.60
2022-12-29T06:20:56.346Z,1.50
2022-12-29T06:21:56.321Z,0.90
2022-12-29T06:22:56.293Z,1.00
2022-12-29T06:23:56.311Z,1.80
2022-12-29T06:25:00.164Z,1.10
2022-12-29T06:25:57.403Z,1.00
2022-12-29T06:26:56.284Z,1.50
2022-12-29T06:27:56.254Z,1.40
2022-12-29T06:28:56.240Z,1.30
2022-12-29T06:29:56.216Z,1.50
2022-12-29T06:30:56.218Z,1.10
2022-12-29T06:31:56.257Z,1.00
2022-12-29T06:32:56.217Z,1.60
2022-12-29T06:33:56.177Z,1.80
2022-12-29T06:34:56.167Z,2.00
2022-12-29T06:35:56.146Z,1.20
2022-12-29T06:36:56.138Z,1.10
2022-12-29T06:37:56.141Z,1.00
2022-12-29T06:38:56.168Z,1.00
2022-12-29T06:39:56.175Z,1.10
2022-12-29T06:40:56.089Z,1.30
2022-12-29T06:41:56.078Z,1.00
2022-12-29T06:42:56.068Z,1.90
2022-12-29T06:43:56.080Z,0.90
2022-12-29T06:44:56.100Z,1.80
2022-12-29T06:45:56.104Z,1.50
2022-12-29T06:46:56.022Z,2.40
2022-12-29T06:47:56.012Z,1.00
2022-12-29T06:48:56.006Z,1.10
2022-12-29T06:49:56.013Z,1.80
2022-12-29T06:50:56.066Z,1.20
2022-12-29T06:51:56.011Z,1.80
2022-12-29T06:52:55.961Z,1.20
2022-12-29T06:53:55.963Z,1.30
2022-12-29T06:55:04.602Z,1.50
2022-12-29T06:55:56.042Z,1.40
2022-12-29T06:56:55.922Z,1.30
2022-12-29T06:57:55.931Z,1.70
2022-12-29T06:58:55.888Z,1.00
2022-12-29T06:59:55.909Z,1.80
2022-12-29T07:00:55.924Z,1.10
2022-12-29T07:01:56.052Z,3.20
2022-12-29T07:02:56.029Z,4.20
2022-12-29T07:03:55.868Z,1.50
2022-12-29T07:04:55.845Z,2.50
2022-12-29T07:05:55.818Z,1.50
2022-12-29T07:06:55.808Z,2.30
2022-12-29T07:07:55.821Z,1.30
2022-12-29T07:08:55.827Z,1.90
2022-12-29T07:09:55.786Z,1.50
2022-12-29T07:10:55.801Z,1.20
2022-12-29T07:11:55.753Z,1.70
2022-12-29T07:12:55.759Z,2.00
2022-12-29T07:13:55.732Z,1.40
2022-12-29T07:14:55.756Z,1.80
2022-12-29T07:15:55.771Z,2.30
2022-12-29T07:16:55.734Z,1.30
2022-12-29T07:17:55.701Z,1.20
2022-12-29T07:18:55.704Z,1.80
2022-12-29T07:19:55.669Z,1.40
2022-12-29T07:20:55.644Z,1.40
2022-12-29T07:21:55.635Z,1.40
2022-12-29T07:22:55.662Z,2.00
2022-12-29T07:23:55.650Z,1.80
2022-12-29T07:24:55.632Z,1.80
2022-12-29T07:25:55.633Z,1.20
2022-12-29T07:26:55.597Z,1.20
2022-12-29T07:27:55.571Z,1.40
2022-12-29T07:28:55.600Z,1.60
2022-12-29T07:29:55.613Z,2.40
2022-12-29T07:30:55.596Z,6.00
2022-12-29T07:31:55.619Z,9.20
2022-12-29T07:32:55.529Z,8.80
2022-12-29T07:33:55.507Z,5.50
2022-12-29T07:34:55.503Z,4.30
2022-12-29T07:35:55.504Z,4.30
2022-12-29T07:36:55.482Z,3.70
2022-12-29T07:37:55.492Z,4.10
2022-12-29T07:38:55.450Z,5.30
2022-12-29T07:39:55.467Z,10.40
2022-12-29T07:40:55.423Z,12.90
2022-12-29T07:42:01.091Z,16.20
2022-12-29T07:42:56.420Z,17.50
2022-12-29T07:43:55.387Z,18.20
2022-12-29T07:44:55.387Z,22.10
2022-12-29T07:45:55.506Z,24.40
2022-12-29T07:46:57.827Z,18.40
2022-12-29T07:47:55.381Z,14.90
2022-12-29T07:48:55.329Z,5.10
2022-12-29T07:49:55.334Z,5.10
2022-12-29T07:50:55.313Z,2.30
2022-12-29T07:51:55.332Z,1.50
2022-12-29T07:52:55.304Z,1.80
2022-12-29T07:53:55.293Z,2.50
2022-12-29T07:54:55.262Z,2.60
2022-12-29T07:55:55.274Z,1.00
2022-12-29T07:56:55.308Z,1.30
2022-12-29T07:57:55.237Z,1.60
2022-12-29T07:58:55.262Z,1.90
2022-12-29T07:59:55.240Z,3.10
2022-12-29T08:00:55.276Z,3.00
2022-12-29T08:01:55.370Z,3.90
2022-12-29T08:02:55.197Z,3.00
2022-12-29T08:03:57.517Z,3.10
2022-12-29T08:04:55.159Z,2.90
2022-12-29T08:05:55.141Z,1.80
2022-12-29T08:06:55.126Z,2.70
2022-12-29T08:07:55.143Z,1.60
2022-12-29T08:08:55.214Z,3.20
2022-12-29T08:09:55.114Z,2.40
2022-12-29T08:10:55.111Z,4.00
2022-12-29T08:11:55.116Z,3.00
2022-12-29T08:12:55.067Z,3.50
2022-12-29T08:13:55.068Z,2.00
2022-12-29T08:14:55.065Z,2.00
2022-12-29T08:15:55.114Z,2.10
2022-12-29T08:16:55.058Z,1.30
2022-12-29T08:17:55.007Z,2.00
2022-12-29T08:18:55.019Z,3.00
2022-12-29T08:19:55.027Z,2.80
2022-12-29T08:20:55.832Z,3.10
2022-12-29T08:21:54.983Z,2.80
2022-12-29T08:22:54.949Z,3.10
2022-12-29T08:23:54.989Z,2.80
2022-12-29T08:24:54.932Z,4.00
2022-12-29T08:25:54.932Z,2.80
2022-12-29T08:26:54.945Z,3.60
2022-12-29T08:27:54.918Z,1.80
2022-12-29T08:28:54.881Z,1.90
2022-12-29T08:29:54.876Z,2.90
2022-12-29T08:30:54.977Z,3.40
2022-12-29T08:31:54.850Z,3.30
2022-12-29T08:32:54.879Z,2.90
2022-12-29T08:33:54.878Z,3.20
2022-12-29T08:34:54.816Z,3.80
2022-12-29T08:35:54.807Z,4.60
2022-12-29T08:36:54.804Z,2.90
2022-12-29T08:37:54.784Z,3.40
2022-12-29T08:38:54.794Z,2.60
2022-12-29T08:39:54.799Z,2.30
2022-12-29T08:40:54.747Z,2.70
2022-12-29T08:41:54.740Z,2.70
2022-12-29T08:42:54.737Z,3.60
2022-12-29T08:43:54.747Z,3.80
2022-12-29T08:44:54.715Z,2.30
2022-12-29T08:45:54.800Z,2.10
2022-12-29T08:46:54.789Z,2.60
2022-12-29T08:47:54.703Z,3.00
2022-12-29T08:48:54.695Z,2.30
2022-12-29T08:49:54.682Z,2.10
2022-12-29T08:50:54.650Z,3.30
2022-12-29T08:51:54.631Z,2.70
2022-12-29T08:52:54.630Z,2.40
2022-12-29T08:53:54.704Z,2.00
2022-12-29T08:54:54.595Z,2.80
2022-12-29T08:55:57.930Z,2.00
2022-12-29T08:56:55.570Z,2.50
2022-12-29T08:57:54.557Z,2.20
2022-12-29T08:58:54.563Z,2.00
2022-12-29T08:59:54.568Z,1.80
2022-12-29T09:00:54.575Z,3.80
2022-12-29T09:01:54.635Z,2.40
2022-12-29T09:02:54.885Z,3.10
2022-12-29T09:04:55.555Z,1.60
2022-12-29T09:05:54.496Z,2.00
2022-12-29T09:06:54.492Z,2.00
2022-12-29T09:07:54.472Z,2.50
2022-12-29T09:08:54.472Z,2.80
2022-12-29T09:09:54.428Z,2.50
2022-12-29T09:10:55.071Z,2.10
2022-12-29T09:11:54.419Z,2.30
2022-12-29T09:12:54.399Z,2.30
2022-12-29T09:13:54.430Z,1.90
2022-12-29T09:14:54.370Z,1.50
2022-12-29T09:15:54.437Z,1.80
2022-12-29T09:16:54.402Z,1.80
2022-12-29T09:17:54.341Z,2.00
2022-12-29T09:18:54.381Z,2.00
2022-12-29T09:19:54.316Z,2.20
2022-12-29T09:20:54.302Z,2.70
2022-12-29T09:21:54.328Z,2.10
2022-12-29T09:22:54.335Z,2.50
2022-12-29T09:23:54.279Z,3.30
2022-12-29T09:24:54.273Z,2.40
2022-12-29T09:25:54.251Z,1.90
2022-12-29T09:26:54.257Z,1.80
2022-12-29T09:27:54.257Z,2.60
2022-12-29T09:28:54.227Z,2.70
2022-12-29T09:29:54.219Z,2.60
2022-12-29T09:30:54.217Z,2.00
2022-12-29T09:31:54.370Z,2.20
2022-12-29T09:32:55.569Z,1.90
2022-12-29T09:33:54.194Z,1.90
2022-12-29T09:34:54.198Z,2.50
2022-12-29T09:35:54.151Z,3.40
2022-12-29T09:36:54.166Z,1.80
2022-12-29T09:37:54.116Z,2.00
2022-12-29T09:38:54.104Z,3.40
2022-12-29T09:39:54.776Z,2.40
2022-12-29T09:40:54.126Z,2.00
2022-12-29T09:41:54.116Z,2.40
2022-12-29T09:42:54.061Z,3.20
2022-12-29T09:43:54.078Z,2.60
2022-12-29T09:44:54.035Z,3.80
2022-12-29T09:45:54.028Z,2.30
2022-12-29T09:46:54.085Z,2.10
2022-12-29T09:47:54.051Z,2.70
2022-12-29T09:48:54.030Z,1.80
2022-12-29T09:49:53.982Z,2.70
2022-12-29T09:50:53.995Z,1.70
2022-12-29T09:51:53.961Z,2.20
2022-12-29T09:52:53.962Z,2.50
2022-12-29T09:53:53.971Z,3.50
2022-12-29T09:55:00.923Z,3.50
2022-12-29T09:55:54.940Z,2.70
2022-12-29T09:56:53.923Z,3.70
2022-12-29T09:57:53.916Z,3.10
2022-12-29T09:58:53.899Z,4.40
2022-12-29T09:59:53.872Z,2.70
2022-12-29T10:00:55.662Z,2.60
2022-12-29T10:01:54.224Z,2.40
2022-12-29T10:02:54.006Z,3.30
2022-12-29T10:03:53.865Z,4.30
2022-12-29T10:04:53.840Z,2.60
2022-12-29T10:05:53.873Z,3.60
2022-12-29T10:07:27.826Z,2.80
2022-12-29T10:07:54.822Z,2.10
2022-12-29T10:08:53.772Z,2.70
2022-12-29T10:09:53.779Z,4.00
2022-12-29T10:10:53.749Z,4.40
2022-12-29T10:11:53.801Z,2.70
2022-12-29T10:12:53.735Z,3.70
2022-12-29T10:13:53.738Z,2.40
2022-12-29T10:14:53.709Z,4.30
2022-12-29T10:15:53.831Z,2.60
2022-12-29T10:16:53.685Z,3.60
2022-12-29T10:17:53.743Z,4.10
2022-12-29T10:18:53.675Z,5.90
2022-12-29T10:19:53.675Z,3.30
2022-12-29T10:20:53.682Z,4.80
2022-12-29T10:21:53.641Z,3.00
2022-12-29T10:22:53.642Z,3.00
2022-12-29T10:23:53.634Z,3.20
2022-12-29T10:24:53.595Z,2.40
2022-12-29T10:25:53.612Z,2.70
2022-12-29T10:26:53.594Z,3.40
2022-12-29T10:27:53.607Z,2.10
2022-12-29T10:28:53.554Z,2.40
2022-12-29T10:29:53.583Z,2.80
2022-12-29T10:30:53.538Z,2.70
2022-12-29T10:31:53.607Z,3.00
2022-12-29T10:32:53.523Z,3.40
2022-12-29T10:33:53.496Z,4.10
2022-12-29T10:34:53.487Z,3.60
2022-12-29T10:35:53.485Z,2.90
2022-12-29T10:36:53.473Z,3.40
2022-12-29T10:37:53.481Z,2.10
2022-12-29T10:38:53.469Z,4.70
2022-12-29T10:39:53.469Z,6.00
2022-12-29T10:40:53.449Z,6.50
2022-12-29T10:41:53.450Z,5.60
2022-12-29T10:42:53.415Z,5.20
2022-12-29T10:43:53.412Z,5.90
2022-12-29T10:44:53.392Z,3.00
2022-12-29T10:45:53.425Z,4.00
2022-12-29T10:46:53.356Z,4.90
2022-12-29T10:47:53.391Z,3.20
2022-12-29T10:48:53.330Z,2.30
2022-12-29T10:49:53.332Z,11.80
2022-12-29T10:50:57.233Z,5.00
2022-12-29T10:51:54.296Z,4.40
2022-12-29T10:52:53.320Z,2.40
2022-12-29T10:53:53.314Z,4.40
2022-12-29T10:54:53.316Z,2.80
2022-12-29T10:55:53.269Z,3.40
2022-12-29T10:56:53.372Z,3.20
2022-12-29T10:57:53.238Z,3.60
2022-12-29T10:58:53.228Z,2.30
2022-12-29T10:59:53.235Z,3.00
2022-12-29T11:00:53.298Z,5.10
2022-12-29T11:01:53.374Z,4.50
2022-12-29T11:02:53.371Z,3.80
2022-12-29T11:03:53.162Z,3.20
2022-12-29T11:04:53.210Z,2.80
2022-12-29T11:05:53.139Z,4.00
2022-12-29T11:06:53.144Z,3.10
2022-12-29T11:07:53.145Z,3.00
2022-12-29T11:08:53.151Z,3.30
2022-12-29T11:09:53.121Z,3.10
2022-12-29T11:10:53.118Z,3.20
2022-12-29T11:11:53.093Z,3.00
2022-12-29T11:12:53.072Z,3.60
2022-12-29T11:13:53.092Z,3.40
2022-12-29T11:14:53.049Z,2.70
2022-12-29T11:15:53.060Z,3.80
2022-12-29T11:16:53.145Z,2.50
2022-12-29T11:17:53.020Z,3.30
2022-12-29T11:18:53.012Z,4.60
2022-12-29T11:19:53.041Z,2.40
2022-12-29T11:20:52.971Z,2.20
2022-12-29T11:21:52.995Z,1.40
2022-12-29T11:22:52.950Z,2.80
2022-12-29T11:23:52.953Z,1.60
2022-12-29T11:24:52.962Z,1.80
2022-12-29T11:25:52.963Z,1.60
2022-12-29T11:26:52.938Z,3.30
2022-12-29T11:27:52.901Z,1.40
2022-12-29T11:28:52.889Z,3.80
2022-12-29T11:29:52.898Z,2.10
2022-12-29T11:30:52.872Z,2.10
2022-12-29T11:31:52.985Z,2.30
2022-12-29T11:32:52.840Z,2.10
2022-12-29T11:33:52.845Z,1.80
2022-12-29T11:34:52.823Z,3.90
2022-12-29T11:35:52.822Z,3.30
2022-12-29T11:36:52.792Z,2.90
2022-12-29T11:37:52.806Z,3.30
2022-12-29T11:38:52.780Z,2.80
2022-12-29T11:39:52.799Z,1.80
2022-12-29T11:40:52.762Z,2.50
2022-12-29T11:41:52.737Z,2.90
2022-12-29T11:42:52.750Z,2.20
2022-12-29T11:43:52.738Z,2.00
2022-12-29T11:44:52.722Z,3.40
2022-12-29T11:45:52.755Z,1.60
2022-12-29T11:46:52.698Z,1.90
2022-12-29T11:47:52.702Z,2.00
2022-12-29T11:48:52.659Z,2.10
2022-12-29T11:49:52.647Z,2.30
2022-12-29T11:50:52.665Z,1.70
2022-12-29T11:51:52.669Z,1.30
2022-12-29T11:52:52.623Z,2.90
2022-12-29T11:53:52.602Z,1.60
2022-12-29T11:54:52.603Z,2.40
2022-12-29T11:55:52.583Z,1.40
2022-12-29T11:56:52.620Z,1.50
2022-12-29T11:57:52.574Z,1.70
2022-12-29T11:58:52.569Z,2.60
2022-12-29T11:59:52.533Z,1.60
2022-12-29T12:00:52.525Z,1.30
2022-12-29T12:01:52.614Z,3.10
2022-12-29T12:02:52.560Z,2.60
2022-12-29T12:03:52.584Z,2.80
2022-12-29T12:04:52.508Z,1.50
2022-12-29T12:05:52.465Z,1.90
2022-12-29T12:06:52.461Z,1.40
2022-12-29T12:07:52.468Z,1.80
2022-12-29T12:08:52.463Z,2.10
2022-12-29T12:09:52.441Z,2.50
2022-12-29T12:10:52.408Z,2.50
2022-12-29T12:11:52.426Z,2.40
2022-12-29T12:12:52.402Z,1.40
2022-12-29T12:13:52.387Z,1.40
2022-12-29T12:14:52.409Z,1.30
2022-12-29T12:15:56.355Z,2.10
2022-12-29T12:16:52.405Z,1.30
2022-12-29T12:17:52.371Z,1.50
2022-12-29T12:18:52.339Z,1.80
2022-12-29T12:19:52.314Z,2.30
2022-12-29T12:20:52.329Z,2.20
2022-12-29T12:21:52.316Z,1.60
2022-12-29T12:22:52.298Z,1.30
2022-12-29T12:23:52.269Z,1.90
2022-12-29T12:24:52.280Z,2.00
2022-12-29T12:25:52.254Z,1.70
2022-12-29T12:26:52.271Z,2.80
2022-12-29T12:27:52.257Z,1.40
2022-12-29T12:28:52.246Z,1.90
2022-12-29T12:29:52.214Z,1.30
2022-12-29T12:30:52.298Z,1.70
2022-12-29T12:31:52.180Z,1.60
2022-12-29T12:32:52.167Z,1.70
2022-12-29T12:33:52.198Z,2.40
2022-12-29T12:34:52.144Z,1.80
2022-12-29T12:35:52.150Z,2.00
2022-12-29T12:36:52.121Z,2.40
2022-12-29T12:37:52.123Z,2.00
2022-12-29T12:38:52.123Z,1.70
2022-12-29T12:39:52.094Z,1.10
2022-12-29T12:40:52.081Z,2.60
2022-12-29T12:41:52.054Z,2.10
2022-12-29T12:42:52.086Z,2.70
2022-12-29T12:43:52.091Z,2.50
2022-12-29T12:44:52.025Z,1.50
2022-12-29T12:45:52.227Z,2.10
2022-12-29T12:46:52.149Z,2.70
2022-12-29T12:47:51.999Z,1.00
2022-12-29T12:48:51.991Z,1.70
2022-12-29T12:49:51.997Z,1.40
2022-12-29T12:50:51.980Z,2.60
2022-12-29T12:51:51.961Z,1.70
2022-12-29T12:52:51.961Z,5.00
2022-12-29T12:53:51.936Z,4.30
2022-12-29T12:54:52.047Z,6.10
2022-12-29T12:55:51.933Z,5.30
2022-12-29T12:56:51.899Z,4.90
2022-12-29T12:57:51.890Z,2.40
2022-12-29T12:58:51.902Z,4.40
2022-12-29T12:59:51.867Z,4.80
2022-12-29T13:00:51.842Z,3.50
2022-12-29T13:01:51.947Z,8.60
2022-12-29T13:02:52.044Z,5.70
2022-12-29T13:03:51.905Z,6.10
2022-12-29T13:04:51.825Z,4.50
2022-12-29T13:05:51.803Z,5.20
2022-12-29T13:06:51.778Z,2.60
2022-12-29T13:07:51.765Z,5.00
2022-12-29T13:08:51.821Z,6.80
2022-12-29T13:09:51.740Z,2.80
2022-12-29T13:10:53.503Z,2.80
2022-12-29T13:11:51.718Z,4.80
2022-12-29T13:12:51.745Z,2.90
2022-12-29T13:13:51.727Z,2.10
2022-12-29T13:14:51.708Z,2.10
2022-12-29T13:15:51.761Z,2.40
2022-12-29T13:16:51.681Z,2.70
2022-12-29T13:17:52.649Z,2.70
2022-12-29T13:18:51.659Z,2.50